sensor_id;sensor_type;location;lat;lon;timestamp;temperature;humidity
10175;DHT22;18221;38.704;0.152;2024-02-21T00:00:17;12.20;99.90
10175;DHT22;18221;38.704;0.152;2024-02-21T00:02:47;12.10;99.90
10175;DHT22;18221;38.704;0.152;2024-02-21T00:05:15;12.70;99.90
10175;DHT22;18221;38.704;0.152;2024-02-21T00:07:43;12.20;99.90
10175;DHT22;18221;38.704;0.152;2024-02-21T00:10:10;12.20;99.90
10175;DHT22;18221;38.704;0.152;2024-02-21T00:12:38;12.20;99.90
10175;DHT22;18221;38.704;0.152;2024-02-21T00:15:07;12.30;99.90
10175;DHT22;18221;38.704;0.152;2024-02-21T00:17:35;12.30;99.90
10175;DHT22;18221;38.704;0.152;2024-02-21T00:20:05;12.20;99.90
10175;DHT22;18221;38.704;0.152;2024-02-21T00:22:34;12.20;99.90
10175;DHT22;18221;38.704;0.152;2024-02-21T00:25:02;12.20;99.90
10175;DHT22;18221;38.704;0.152;2024-02-21T00:27:30;12.20;99.90
10175;DHT22;18221;38.704;0.152;2024-02-21T00:29:58;12.20;99.90
10175;DHT22;18221;38.704;0.152;2024-02-21T00:32:26;12.20;99.90
10175;DHT22;18221;38.704;0.152;2024-02-21T00:34:54;12.20;99.90
10175;DHT22;18221;38.704;0.152;2024-02-21T00:37:23;12.10;99.90
10175;DHT22;18221;38.704;0.152;2024-02-21T00:39:51;12.00;99.90
10175;DHT22;18221;38.704;0.152;2024-02-21T00:42:18;12.00;99.90
10175;DHT22;18221;38.704;0.152;2024-02-21T00:44:47;12.00;99.90
10175;DHT22;18221;38.704;0.152;2024-02-21T00:47:14;12.00;99.90
10175;DHT22;18221;38.704;0.152;2024-02-21T00:49:42;11.90;99.90
10175;DHT22;18221;38.704;0.152;2024-02-21T01:02:34;12.10;99.90
10175;DHT22;18221;38.704;0.152;2024-02-21T01:05:02;12.10;99.90
10175;DHT22;18221;38.704;0.152;2024-02-21T01:07:30;12.10;99.90
10175;DHT22;18221;38.704;0.152;2024-02-21T01:09:58;12.10;99.90
10175;DHT22;18221;38.704;0.152;2024-02-21T01:12:26;12.10;99.90
10175;DHT22;18221;38.704;0.152;2024-02-21T01:14:54;12.10;99.90
10175;DHT22;18221;38.704;0.152;2024-02-21T01:17:21;12.10;99.90
10175;DHT22;18221;38.704;0.152;2024-02-21T01:19:51;12.10;99.90
10175;DHT22;18221;38.704;0.152;2024-02-21T01:22:18;12.10;99.90
10175;DHT22;18221;38.704;0.152;2024-02-21T01:24:46;12.10;99.90
10175;DHT22;18221;38.704;0.152;2024-02-21T01:27:14;12.10;99.90
10175;DHT22;18221;38.704;0.152;2024-02-21T01:29:42;12.10;99.90
10175;DHT22;18221;38.704;0.152;2024-02-21T01:32:12;12.10;99.90
10175;DHT22;18221;38.704;0.152;2024-02-21T01:34:40;12.00;99.90
10175;DHT22;18221;38.704;0.152;2024-02-21T01:37:12;12.00;99.90
10175;DHT22;18221;38.704;0.152;2024-02-21T01:39:40;11.90;99.90
10175;DHT22;18221;38.704;0.152;2024-02-21T01:42:08;11.90;99.90
10175;DHT22;18221;38.704;0.152;2024-02-21T01:44:35;11.90;99.90
10175;DHT22;18221;38.704;0.152;2024-02-21T01:47:04;11.80;99.90
10175;DHT22;18221;38.704;0.152;2024-02-21T01:49:32;11.70;99.90
10175;DHT22;18221;38.704;0.152;2024-02-21T01:52:01;11.60;99.90
10175;DHT22;18221;38.704;0.152;2024-02-21T01:54:31;11.60;99.90
10175;DHT22;18221;38.704;0.152;2024-02-21T01:57:00;11.50;99.90
10175;DHT22;18221;38.704;0.152;2024-02-21T01:59:28;11.50;99.90
10175;DHT22;18221;38.704;0.152;2024-02-21T02:01:56;11.60;99.90
10175;DHT22;18221;38.704;0.152;2024-02-21T02:04:25;11.70;99.90
10175;DHT22;18221;38.704;0.152;2024-02-21T02:06:54;11.80;99.90
10175;DHT22;18221;38.704;0.152;2024-02-21T02:09:24;11.80;99.90
10175;DHT22;18221;38.704;0.152;2024-02-21T02:11:53;11.90;99.90
10175;DHT22;18221;38.704;0.152;2024-02-21T02:14:21;11.90;99.90
10175;DHT22;18221;38.704;0.152;2024-02-21T02:16:49;11.80;99.90
10175;DHT22;18221;38.704;0.152;2024-02-21T02:19:17;11.70;99.90
10175;DHT22;18221;38.704;0.152;2024-02-21T02:21:49;11.70;99.90
10175;DHT22;18221;38.704;0.152;2024-02-21T02:24:24;11.60;99.90
10175;DHT22;18221;38.704;0.152;2024-02-21T02:26:52;11.60;99.90
10175;DHT22;18221;38.704;0.152;2024-02-21T02:29:20;11.70;99.90
10175;DHT22;18221;38.704;0.152;2024-02-21T02:31:49;11.60;99.90
10175;DHT22;18221;38.704;0.152;2024-02-21T02:34:17;11.60;99.90
10175;DHT22;18221;38.704;0.152;2024-02-21T02:36:45;11.60;99.90
10175;DHT22;18221;38.704;0.152;2024-02-21T02:39:14;11.60;99.90
10175;DHT22;18221;38.704;0.152;2024-02-21T02:41:43;11.50;99.90
10175;DHT22;18221;38.704;0.152;2024-02-21T02:44:11;11.50;99.90
10175;DHT22;18221;38.704;0.152;2024-02-21T02:46:40;11.40;99.90
10175;DHT22;18221;38.704;0.152;2024-02-21T02:49:08;11.40;99.90
10175;DHT22;18221;38.704;0.152;2024-02-21T02:51:36;11.40;99.90
10175;DHT22;18221;38.704;0.152;2024-02-21T02:54:08;11.40;99.90
10175;DHT22;18221;38.704;0.152;2024-02-21T02:56:36;11.40;99.90
10175;DHT22;18221;38.704;0.152;2024-02-21T02:59:05;11.40;99.90
10175;DHT22;18221;38.704;0.152;2024-02-21T03:01:34;11.40;99.90
10175;DHT22;18221;38.704;0.152;2024-02-21T03:04:02;11.40;99.90
10175;DHT22;18221;38.704;0.152;2024-02-21T03:06:31;11.40;99.90
10175;DHT22;18221;38.704;0.152;2024-02-21T03:08:59;11.40;99.90
10175;DHT22;18221;38.704;0.152;2024-02-21T03:11:27;11.50;99.90
10175;DHT22;18221;38.704;0.152;2024-02-21T03:13:56;11.50;99.90
10175;DHT22;18221;38.704;0.152;2024-02-21T03:16:25;11.50;99.90
10175;DHT22;18221;38.704;0.152;2024-02-21T03:18:53;11.50;99.90
10175;DHT22;18221;38.704;0.152;2024-02-21T03:21:21;11.50;99.90
10175;DHT22;18221;38.704;0.152;2024-02-21T03:23:48;11.50;99.90
10175;DHT22;18221;38.704;0.152;2024-02-21T03:26:16;11.60;99.90
10175;DHT22;18221;38.704;0.152;2024-02-21T03:28:44;11.60;99.90
10175;DHT22;18221;38.704;0.152;2024-02-21T03:31:12;11.70;99.90
10175;DHT22;18221;38.704;0.152;2024-02-21T03:33:42;11.70;99.90
10175;DHT22;18221;38.704;0.152;2024-02-21T03:36:13;11.80;99.90
10175;DHT22;18221;38.704;0.152;2024-02-21T03:38:41;11.80;99.90
10175;DHT22;18221;38.704;0.152;2024-02-21T03:41:09;11.80;99.90
10175;DHT22;18221;38.704;0.152;2024-02-21T03:43:38;11.90;99.90
10175;DHT22;18221;38.704;0.152;2024-02-21T03:46:06;11.90;99.90
10175;DHT22;18221;38.704;0.152;2024-02-21T03:48:35;11.90;99.90
10175;DHT22;18221;38.704;0.152;2024-02-21T03:51:07;11.90;99.90
10175;DHT22;18221;38.704;0.152;2024-02-21T03:53:35;11.90;99.90
10175;DHT22;18221;38.704;0.152;2024-02-21T03:56:04;12.00;99.90
10175;DHT22;18221;38.704;0.152;2024-02-21T03:58:33;12.00;99.90
10175;DHT22;18221;38.704;0.152;2024-02-21T04:01:04;12.00;99.90
10175;DHT22;18221;38.704;0.152;2024-02-21T04:03:32;12.00;99.90
10175;DHT22;18221;38.704;0.152;2024-02-21T04:06:00;12.10;99.90
10175;DHT22;18221;38.704;0.152;2024-02-21T04:08:29;12.10;99.90
10175;DHT22;18221;38.704;0.152;2024-02-21T04:10:57;12.10;99.90
10175;DHT22;18221;38.704;0.152;2024-02-21T04:13:25;12.10;99.90
10175;DHT22;18221;38.704;0.152;2024-02-21T04:15:53;12.10;99.90
10175;DHT22;18221;38.704;0.152;2024-02-21T04:18:20;12.10;99.90
10175;DHT22;18221;38.704;0.152;2024-02-21T04:20:52;12.10;99.90
10175;DHT22;18221;38.704;0.152;2024-02-21T04:23:20;12.10;99.90
10175;DHT22;18221;38.704;0.152;2024-02-21T04:25:49;12.10;99.90
10175;DHT22;18221;38.704;0.152;2024-02-21T04:28:18;12.10;99.90
10175;DHT22;18221;38.704;0.152;2024-02-21T04:30:46;12.10;99.90
10175;DHT22;18221;38.704;0.152;2024-02-21T04:33:14;12.10;99.90
10175;DHT22;18221;38.704;0.152;2024-02-21T04:35:41;12.10;99.90
10175;DHT22;18221;38.704;0.152;2024-02-21T04:38:09;12.10;99.90
10175;DHT22;18221;38.704;0.152;2024-02-21T04:40:37;12.10;99.90
10175;DHT22;18221;38.704;0.152;2024-02-21T04:43:06;12.10;99.90
10175;DHT22;18221;38.704;0.152;2024-02-21T04:45:34;12.10;99.90
10175;DHT22;18221;38.704;0.152;2024-02-21T04:48:02;12.10;99.90
10175;DHT22;18221;38.704;0.152;2024-02-21T04:50:30;12.10;99.90
10175;DHT22;18221;38.704;0.152;2024-02-21T04:52:58;12.20;99.90
10175;DHT22;18221;38.704;0.152;2024-02-21T04:55:26;12.10;99.90
10175;DHT22;18221;38.704;0.152;2024-02-21T04:57:54;12.20;99.90
10175;DHT22;18221;38.704;0.152;2024-02-21T05:00:23;12.20;99.90
10175;DHT22;18221;38.704;0.152;2024-02-21T05:02:51;12.10;99.90
10175;DHT22;18221;38.704;0.152;2024-02-21T05:05:19;12.10;99.90
10175;DHT22;18221;38.704;0.152;2024-02-21T05:07:47;12.10;99.90
10175;DHT22;18221;38.704;0.152;2024-02-21T05:10:14;12.10;99.90
10175;DHT22;18221;38.704;0.152;2024-02-21T05:12:43;12.10;99.90
10175;DHT22;18221;38.704;0.152;2024-02-21T05:15:11;12.20;99.90
10175;DHT22;18221;38.704;0.152;2024-02-21T05:17:40;12.20;99.90
10175;DHT22;18221;38.704;0.152;2024-02-21T05:20:09;12.20;99.90
10175;DHT22;18221;38.704;0.152;2024-02-21T05:22:37;12.20;99.90
10175;DHT22;18221;38.704;0.152;2024-02-21T05:25:06;12.20;99.90
10175;DHT22;18221;38.704;0.152;2024-02-21T05:27:34;12.20;99.90
10175;DHT22;18221;38.704;0.152;2024-02-21T05:30:05;12.20;99.90
10175;DHT22;18221;38.704;0.152;2024-02-21T05:32:34;12.20;99.90
10175;DHT22;18221;38.704;0.152;2024-02-21T05:35:03;12.20;99.90
10175;DHT22;18221;38.704;0.152;2024-02-21T05:37:31;12.20;99.90
10175;DHT22;18221;38.704;0.152;2024-02-21T05:39:59;12.20;99.90
10175;DHT22;18221;38.704;0.152;2024-02-21T05:42:27;12.10;99.90
10175;DHT22;18221;38.704;0.152;2024-02-21T05:44:54;12.20;99.90
10175;DHT22;18221;38.704;0.152;2024-02-21T05:47:22;12.10;99.90
10175;DHT22;18221;38.704;0.152;2024-02-21T05:49:50;12.20;99.90
10175;DHT22;18221;38.704;0.152;2024-02-21T05:52:21;12.20;99.90
10175;DHT22;18221;38.704;0.152;2024-02-21T05:54:49;12.20;99.90
10175;DHT22;18221;38.704;0.152;2024-02-21T05:57:17;12.20;99.90
10175;DHT22;18221;38.704;0.152;2024-02-21T05:59:45;12.20;99.90
10175;DHT22;18221;38.704;0.152;2024-02-21T06:02:13;12.10;99.90
10175;DHT22;18221;38.704;0.152;2024-02-21T06:04:41;12.10;99.90
10175;DHT22;18221;38.704;0.152;2024-02-21T06:07:10;12.10;99.90
10175;DHT22;18221;38.704;0.152;2024-02-21T06:09:39;12.00;99.90
10175;DHT22;18221;38.704;0.152;2024-02-21T06:12:07;12.10;99.90
10175;DHT22;18221;38.704;0.152;2024-02-21T06:14:35;12.10;99.90
10175;DHT22;18221;38.704;0.152;2024-02-21T06:17:03;12.10;99.90
10175;DHT22;18221;38.704;0.152;2024-02-21T06:19:31;12.10;99.90
10175;DHT22;18221;38.704;0.152;2024-02-21T06:21:59;12.10;99.90
10175;DHT22;18221;38.704;0.152;2024-02-21T06:24:27;12.10;99.90
10175;DHT22;18221;38.704;0.152;2024-02-21T06:26:56;12.20;99.90
10175;DHT22;18221;38.704;0.152;2024-02-21T06:29:24;12.10;99.90
10175;DHT22;18221;38.704;0.152;2024-02-21T06:31:51;12.20;99.90
10175;DHT22;18221;38.704;0.152;2024-02-21T06:34:19;12.20;99.90
10175;DHT22;18221;38.704;0.152;2024-02-21T06:36:47;12.20;99.90
10175;DHT22;18221;38.704;0.152;2024-02-21T06:39:15;12.20;99.90
10175;DHT22;18221;38.704;0.152;2024-02-21T06:41:43;12.20;99.90
10175;DHT22;18221;38.704;0.152;2024-02-21T06:44:12;12.30;99.90
10175;DHT22;18221;38.704;0.152;2024-02-21T06:46:40;12.30;99.90
10175;DHT22;18221;38.704;0.152;2024-02-21T06:49:07;12.30;99.90
10175;DHT22;18221;38.704;0.152;2024-02-21T06:51:41;12.30;99.90
10175;DHT22;18221;38.704;0.152;2024-02-21T06:54:10;12.30;99.90
10175;DHT22;18221;38.704;0.152;2024-02-21T06:56:39;12.30;99.90
10175;DHT22;18221;38.704;0.152;2024-02-21T06:59:07;12.30;99.90
10175;DHT22;18221;38.704;0.152;2024-02-21T07:01:36;12.30;99.90
10175;DHT22;18221;38.704;0.152;2024-02-21T07:04:04;12.30;99.90
10175;DHT22;18221;38.704;0.152;2024-02-21T07:06:33;12.30;99.90
10175;DHT22;18221;38.704;0.152;2024-02-21T07:09:01;12.30;99.90
10175;DHT22;18221;38.704;0.152;2024-02-21T07:11:28;12.20;99.90
10175;DHT22;18221;38.704;0.152;2024-02-21T07:13:56;12.20;99.90
10175;DHT22;18221;38.704;0.152;2024-02-21T07:16:24;12.20;99.90
10175;DHT22;18221;38.704;0.152;2024-02-21T07:18:54;12.10;99.90
10175;DHT22;18221;38.704;0.152;2024-02-21T07:21:22;12.10;99.90
10175;DHT22;18221;38.704;0.152;2024-02-21T07:23:50;12.10;99.90
10175;DHT22;18221;38.704;0.152;2024-02-21T07:26:18;12.10;99.90
10175;DHT22;18221;38.704;0.152;2024-02-21T07:28:46;12.10;99.90
10175;DHT22;18221;38.704;0.152;2024-02-21T07:31:13;12.10;99.90
10175;DHT22;18221;38.704;0.152;2024-02-21T07:33:41;12.10;99.90
10175;DHT22;18221;38.704;0.152;2024-02-21T07:36:11;12.20;99.90
10175;DHT22;18221;38.704;0.152;2024-02-21T07:38:39;12.20;99.90
10175;DHT22;18221;38.704;0.152;2024-02-21T07:41:06;12.20;99.90
10175;DHT22;18221;38.704;0.152;2024-02-21T07:43:34;12.30;99.90
10175;DHT22;18221;38.704;0.152;2024-02-21T07:46:02;12.30;99.90
10175;DHT22;18221;38.704;0.152;2024-02-21T07:48:30;12.30;99.90
10175;DHT22;18221;38.704;0.152;2024-02-21T07:50:58;12.40;99.90
10175;DHT22;18221;38.704;0.152;2024-02-21T07:53:27;12.40;99.90
10175;DHT22;18221;38.704;0.152;2024-02-21T07:55:58;12.40;99.90
10175;DHT22;18221;38.704;0.152;2024-02-21T07:58:27;12.50;99.90
10175;DHT22;18221;38.704;0.152;2024-02-21T08:00:54;12.50;99.90
10175;DHT22;18221;38.704;0.152;2024-02-21T08:03:22;12.50;99.90
10175;DHT22;18221;38.704;0.152;2024-02-21T08:05:51;12.50;99.90
10175;DHT22;18221;38.704;0.152;2024-02-21T08:08:19;12.50;99.90
10175;DHT22;18221;38.704;0.152;2024-02-21T08:10:49;12.60;99.90
10175;DHT22;18221;38.704;0.152;2024-02-21T08:13:17;12.60;99.90
10175;DHT22;18221;38.704;0.152;2024-02-21T08:15:45;12.50;99.90
10175;DHT22;18221;38.704;0.152;2024-02-21T08:18:12;12.50;99.90
10175;DHT22;18221;38.704;0.152;2024-02-21T08:20:40;12.50;99.90
10175;DHT22;18221;38.704;0.152;2024-02-21T08:23:08;12.60;99.90
10175;DHT22;18221;38.704;0.152;2024-02-21T08:25:36;12.70;99.90
10175;DHT22;18221;38.704;0.152;2024-02-21T08:28:05;12.70;99.90
10175;DHT22;18221;38.704;0.152;2024-02-21T08:30:34;12.70;99.90
10175;DHT22;18221;38.704;0.152;2024-02-21T08:33:02;12.70;99.90
10175;DHT22;18221;38.704;0.152;2024-02-21T08:35:30;12.70;99.90
10175;DHT22;18221;38.704;0.152;2024-02-21T08:37:57;12.70;99.90
10175;DHT22;18221;38.704;0.152;2024-02-21T08:40:25;12.70;99.90
10175;DHT22;18221;38.704;0.152;2024-02-21T08:42:53;12.70;99.90
10175;DHT22;18221;38.704;0.152;2024-02-21T08:45:22;12.80;99.90
10175;DHT22;18221;38.704;0.152;2024-02-21T08:47:50;12.90;99.90
10175;DHT22;18221;38.704;0.152;2024-02-21T08:50:18;12.90;99.90
10175;DHT22;18221;38.704;0.152;2024-02-21T08:52:46;12.90;99.90
10175;DHT22;18221;38.704;0.152;2024-02-21T08:55:13;13.00;99.90
10175;DHT22;18221;38.704;0.152;2024-02-21T08:57:41;13.00;99.90
10175;DHT22;18221;38.704;0.152;2024-02-21T09:00:10;13.10;99.90
10175;DHT22;18221;38.704;0.152;2024-02-21T09:02:41;13.00;99.90
10175;DHT22;18221;38.704;0.152;2024-02-21T09:05:10;13.00;99.90
10175;DHT22;18221;38.704;0.152;2024-02-21T09:07:38;12.90;99.90
10175;DHT22;18221;38.704;0.152;2024-02-21T09:10:06;13.00;99.90
10175;DHT22;18221;38.704;0.152;2024-02-21T09:12:35;13.00;99.90
10175;DHT22;18221;38.704;0.152;2024-02-21T09:15:03;13.00;99.90
10175;DHT22;18221;38.704;0.152;2024-02-21T09:17:31;13.00;99.90
10175;DHT22;18221;38.704;0.152;2024-02-21T09:20:01;13.10;99.90
10175;DHT22;18221;38.704;0.152;2024-02-21T09:22:29;13.20;99.90
10175;DHT22;18221;38.704;0.152;2024-02-21T09:24:57;13.30;99.90
10175;DHT22;18221;38.704;0.152;2024-02-21T09:27:25;13.30;99.90
10175;DHT22;18221;38.704;0.152;2024-02-21T09:29:53;13.30;99.90
10175;DHT22;18221;38.704;0.152;2024-02-21T09:32:20;13.30;99.90
10175;DHT22;18221;38.704;0.152;2024-02-21T09:34:48;13.30;99.90
10175;DHT22;18221;38.704;0.152;2024-02-21T09:37:17;13.30;99.90
10175;DHT22;18221;38.704;0.152;2024-02-21T09:39:45;13.30;99.90
10175;DHT22;18221;38.704;0.152;2024-02-21T09:42:15;13.30;99.90
10175;DHT22;18221;38.704;0.152;2024-02-21T09:44:47;13.30;99.90
10175;DHT22;18221;38.704;0.152;2024-02-21T09:47:19;13.20;99.90
10175;DHT22;18221;38.704;0.152;2024-02-21T09:49:50;13.30;99.90
10175;DHT22;18221;38.704;0.152;2024-02-21T09:52:21;13.20;99.90
10175;DHT22;18221;38.704;0.152;2024-02-21T09:54:49;13.40;99.90
10175;DHT22;18221;38.704;0.152;2024-02-21T09:57:18;13.40;99.90
10175;DHT22;18221;38.704;0.152;2024-02-21T09:59:51;13.40;99.90
10175;DHT22;18221;38.704;0.152;2024-02-21T10:02:19;13.40;99.90
10175;DHT22;18221;38.704;0.152;2024-02-21T10:04:47;13.30;99.90
10175;DHT22;18221;38.704;0.152;2024-02-21T10:07:15;13.30;99.90
10175;DHT22;18221;38.704;0.152;2024-02-21T10:10:00;13.40;99.90
10175;DHT22;18221;38.704;0.152;2024-02-21T10:12:28;13.30;99.90
10175;DHT22;18221;38.704;0.152;2024-02-21T10:15:02;13.20;99.90
10175;DHT22;18221;38.704;0.152;2024-02-21T10:17:30;13.30;99.90
10175;DHT22;18221;38.704;0.152;2024-02-21T10:20:07;13.30;99.90
10175;DHT22;18221;38.704;0.152;2024-02-21T10:22:37;13.40;99.90
10175;DHT22;18221;38.704;0.152;2024-02-21T10:25:11;13.40;99.90
10175;DHT22;18221;38.704;0.152;2024-02-21T10:27:40;13.50;99.90
10175;DHT22;18221;38.704;0.152;2024-02-21T10:30:13;13.60;99.90
10175;DHT22;18221;38.704;0.152;2024-02-21T10:32:49;13.70;99.90
10175;DHT22;18221;38.704;0.152;2024-02-21T10:35:26;13.70;99.90
10175;DHT22;18221;38.704;0.152;2024-02-21T10:37:56;13.70;99.90
10175;DHT22;18221;38.704;0.152;2024-02-21T10:40:28;13.80;99.90
10175;DHT22;18221;38.704;0.152;2024-02-21T10:42:58;13.70;99.90
10175;DHT22;18221;38.704;0.152;2024-02-21T10:45:30;13.70;99.90
10175;DHT22;18221;38.704;0.152;2024-02-21T10:48:07;13.70;99.90
10175;DHT22;18221;38.704;0.152;2024-02-21T10:50:47;13.70;99.90
10175;DHT22;18221;38.704;0.152;2024-02-21T10:53:31;13.70;99.90
10175;DHT22;18221;38.704;0.152;2024-02-21T10:56:11;13.80;99.90
10175;DHT22;18221;38.704;0.152;2024-02-21T10:58:49;13.90;99.90
10175;DHT22;18221;38.704;0.152;2024-02-21T11:01:18;13.90;99.90
10175;DHT22;18221;38.704;0.152;2024-02-21T11:03:47;14.00;99.90
10175;DHT22;18221;38.704;0.152;2024-02-21T11:06:18;14.10;99.90
10175;DHT22;18221;38.704;0.152;2024-02-21T11:08:47;14.00;99.90
10175;DHT22;18221;38.704;0.152;2024-02-21T11:11:27;13.90;99.90
10175;DHT22;18221;38.704;0.152;2024-02-21T11:14:04;14.10;99.90
10175;DHT22;18221;38.704;0.152;2024-02-21T11:16:37;14.10;99.90
10175;DHT22;18221;38.704;0.152;2024-02-21T11:19:07;14.20;99.90
10175;DHT22;18221;38.704;0.152;2024-02-21T11:21:37;14.30;99.90
10175;DHT22;18221;38.704;0.152;2024-02-21T11:24:07;14.40;99.90
10175;DHT22;18221;38.704;0.152;2024-02-21T11:26:38;14.50;99.90
10175;DHT22;18221;38.704;0.152;2024-02-21T11:29:08;14.50;99.90
10175;DHT22;18221;38.704;0.152;2024-02-21T11:31:39;14.60;99.90
10175;DHT22;18221;38.704;0.152;2024-02-21T11:34:11;14.50;99.90
10175;DHT22;18221;38.704;0.152;2024-02-21T11:36:49;14.50;99.90
10175;DHT22;18221;38.704;0.152;2024-02-21T11:39:21;14.50;99.90
10175;DHT22;18221;38.704;0.152;2024-02-21T11:42:03;14.60;99.90
10175;DHT22;18221;38.704;0.152;2024-02-21T11:44:34;14.70;99.90
10175;DHT22;18221;38.704;0.152;2024-02-21T11:47:04;14.80;99.90
10175;DHT22;18221;38.704;0.152;2024-02-21T11:49:37;14.80;99.90
10175;DHT22;18221;38.704;0.152;2024-02-21T11:52:06;14.90;99.90
10175;DHT22;18221;38.704;0.152;2024-02-21T11:54:34;14.80;99.90
10175;DHT22;18221;38.704;0.152;2024-02-21T11:57:04;14.80;99.90
10175;DHT22;18221;38.704;0.152;2024-02-21T11:59:32;14.90;99.90
10175;DHT22;18221;38.704;0.152;2024-02-21T12:02:01;14.00;99.90
10175;DHT22;18221;38.704;0.152;2024-02-21T12:04:30;15.00;99.90
10175;DHT22;18221;38.704;0.152;2024-02-21T12:06:58;15.00;99.90
10175;DHT22;18221;38.704;0.152;2024-02-21T12:09:26;15.10;99.90
10175;DHT22;18221;38.704;0.152;2024-02-21T12:11:58;15.10;99.90
10175;DHT22;18221;38.704;0.152;2024-02-21T12:14:29;15.10;99.90
10175;DHT22;18221;38.704;0.152;2024-02-21T12:16:58;15.10;99.90
10175;DHT22;18221;38.704;0.152;2024-02-21T12:19:28;15.20;99.90
10175;DHT22;18221;38.704;0.152;2024-02-21T12:21:58;15.30;99.90
10175;DHT22;18221;38.704;0.152;2024-02-21T12:24:27;15.30;99.90
10175;DHT22;18221;38.704;0.152;2024-02-21T12:26:56;15.30;99.90
10175;DHT22;18221;38.704;0.152;2024-02-21T12:29:25;15.30;99.90
10175;DHT22;18221;38.704;0.152;2024-02-21T12:31:56;15.30;99.90
10175;DHT22;18221;38.704;0.152;2024-02-21T12:34:24;15.20;99.90
10175;DHT22;18221;38.704;0.152;2024-02-21T12:36:52;15.10;99.90
10175;DHT22;18221;38.704;0.152;2024-02-21T12:39:20;15.00;99.90
10175;DHT22;18221;38.704;0.152;2024-02-21T12:41:50;14.90;99.90
10175;DHT22;18221;38.704;0.152;2024-02-21T12:44:18;14.90;99.90
10175;DHT22;18221;38.704;0.152;2024-02-21T12:46:47;15.00;99.90
10175;DHT22;18221;38.704;0.152;2024-02-21T12:49:18;15.00;99.90
10175;DHT22;18221;38.704;0.152;2024-02-21T12:51:46;15.10;99.90
10175;DHT22;18221;38.704;0.152;2024-02-21T12:54:14;15.20;99.90
10175;DHT22;18221;38.704;0.152;2024-02-21T12:56:42;15.20;99.90
10175;DHT22;18221;38.704;0.152;2024-02-21T12:59:09;15.40;99.90
10175;DHT22;18221;38.704;0.152;2024-02-21T13:01:37;15.40;99.90
10175;DHT22;18221;38.704;0.152;2024-02-21T13:04:07;15.40;99.90
10175;DHT22;18221;38.704;0.152;2024-02-21T13:06:35;15.40;99.90
10175;DHT22;18221;38.704;0.152;2024-02-21T13:09:02;15.30;99.90
10175;DHT22;18221;38.704;0.152;2024-02-21T13:11:34;15.40;99.90
10175;DHT22;18221;38.704;0.152;2024-02-21T13:14:02;15.40;99.90
10175;DHT22;18221;38.704;0.152;2024-02-21T13:16:32;15.50;99.90
10175;DHT22;18221;38.704;0.152;2024-02-21T13:19:06;15.60;99.90
10175;DHT22;18221;38.704;0.152;2024-02-21T13:21:35;15.70;99.90
10175;DHT22;18221;38.704;0.152;2024-02-21T13:24:04;15.70;99.90
10175;DHT22;18221;38.704;0.152;2024-02-21T13:26:33;15.80;99.90
10175;DHT22;18221;38.704;0.152;2024-02-21T13:29:01;15.70;99.90
10175;DHT22;18221;38.704;0.152;2024-02-21T13:31:29;15.80;99.90
10175;DHT22;18221;38.704;0.152;2024-02-21T13:33:57;15.80;99.90
10175;DHT22;18221;38.704;0.152;2024-02-21T13:36:26;15.80;99.90
10175;DHT22;18221;38.704;0.152;2024-02-21T13:38:55;15.80;99.90
10175;DHT22;18221;38.704;0.152;2024-02-21T13:41:23;15.80;99.90
10175;DHT22;18221;38.704;0.152;2024-02-21T13:43:51;15.80;99.90
10175;DHT22;18221;38.704;0.152;2024-02-21T13:46:19;15.80;99.90
10175;DHT22;18221;38.704;0.152;2024-02-21T13:48:48;15.70;99.90
10175;DHT22;18221;38.704;0.152;2024-02-21T13:51:15;15.90;99.90
10175;DHT22;18221;38.704;0.152;2024-02-21T13:53:45;16.00;99.90
10175;DHT22;18221;38.704;0.152;2024-02-21T13:56:13;16.10;99.90
10175;DHT22;18221;38.704;0.152;2024-02-21T13:58:40;16.00;99.90
10175;DHT22;18221;38.704;0.152;2024-02-21T14:01:08;15.80;99.90
10175;DHT22;18221;38.704;0.152;2024-02-21T14:03:36;15.70;99.90
10175;DHT22;18221;38.704;0.152;2024-02-21T14:06:04;15.70;99.90
10175;DHT22;18221;38.704;0.152;2024-02-21T14:08:32;15.70;99.90
10175;DHT22;18221;38.704;0.152;2024-02-21T14:11:01;15.60;99.90
10175;DHT22;18221;38.704;0.152;2024-02-21T14:13:30;15.60;99.90
10175;DHT22;18221;38.704;0.152;2024-02-21T14:15:58;15.70;99.90
10175;DHT22;18221;38.704;0.152;2024-02-21T14:18:26;15.70;99.90
10175;DHT22;18221;38.704;0.152;2024-02-21T14:20:53;15.80;99.90
10175;DHT22;18221;38.704;0.152;2024-02-21T14:23:21;15.80;99.90
10175;DHT22;18221;38.704;0.152;2024-02-21T14:25:49;15.70;99.90
10175;DHT22;18221;38.704;0.152;2024-02-21T14:28:18;15.60;99.90
10175;DHT22;18221;38.704;0.152;2024-02-21T14:30:46;15.50;99.90
10175;DHT22;18221;38.704;0.152;2024-02-21T14:33:16;15.50;99.90
10175;DHT22;18221;38.704;0.152;2024-02-21T14:35:44;15.50;99.90
10175;DHT22;18221;38.704;0.152;2024-02-21T14:38:12;15.70;99.90
10175;DHT22;18221;38.704;0.152;2024-02-21T14:40:40;15.80;99.90
10175;DHT22;18221;38.704;0.152;2024-02-21T14:43:08;15.70;99.90
10175;DHT22;18221;38.704;0.152;2024-02-21T14:45:38;15.60;99.90
10175;DHT22;18221;38.704;0.152;2024-02-21T14:48:06;15.50;99.90
10175;DHT22;18221;38.704;0.152;2024-02-21T14:50:34;15.60;99.90
10175;DHT22;18221;38.704;0.152;2024-02-21T14:53:02;15.70;99.90
10175;DHT22;18221;38.704;0.152;2024-02-21T14:55:30;15.60;99.90
10175;DHT22;18221;38.704;0.152;2024-02-21T14:57:58;15.70;99.90
10175;DHT22;18221;38.704;0.152;2024-02-21T15:00:26;15.80;99.90
10175;DHT22;18221;38.704;0.152;2024-02-21T15:02:57;15.90;99.90
10175;DHT22;18221;38.704;0.152;2024-02-21T15:05:25;16.00;99.90
10175;DHT22;18221;38.704;0.152;2024-02-21T15:07:56;16.20;99.90
10175;DHT22;18221;38.704;0.152;2024-02-21T15:10:24;16.20;99.90
10175;DHT22;18221;38.704;0.152;2024-02-21T15:12:52;16.00;99.90
10175;DHT22;18221;38.704;0.152;2024-02-21T15:15:20;16.00;99.90
10175;DHT22;18221;38.704;0.152;2024-02-21T15:17:48;16.00;99.90
10175;DHT22;18221;38.704;0.152;2024-02-21T15:20:18;15.90;99.90
10175;DHT22;18221;38.704;0.152;2024-02-21T15:22:46;15.90;99.90
10175;DHT22;18221;38.704;0.152;2024-02-21T15:25:15;15.80;99.90
10175;DHT22;18221;38.704;0.152;2024-02-21T15:27:44;15.70;99.90
10175;DHT22;18221;38.704;0.152;2024-02-21T15:30:13;15.60;99.90
10175;DHT22;18221;38.704;0.152;2024-02-21T15:32:41;15.60;99.90
10175;DHT22;18221;38.704;0.152;2024-02-21T15:35:10;15.60;99.90
10175;DHT22;18221;38.704;0.152;2024-02-21T15:37:39;15.70;99.90
10175;DHT22;18221;38.704;0.152;2024-02-21T15:40:08;15.60;99.90
10175;DHT22;18221;38.704;0.152;2024-02-21T15:42:36;15.60;99.90
10175;DHT22;18221;38.704;0.152;2024-02-21T15:45:05;15.30;99.90
10175;DHT22;18221;38.704;0.152;2024-02-21T15:47:34;15.20;99.90
10175;DHT22;18221;38.704;0.152;2024-02-21T15:50:02;15.20;99.90